sensor_id;sensor_type;location;lat;lon;timestamp;P1;P2;P0
66395;PMS5003;72184;51.378;-1.342;2023-09-18T00:01:03;8;7;
66395;PMS5003;72184;51.378;-1.342;2023-09-18T00:03:31;7;6;
66395;PMS5003;72184;51.378;-1.342;2023-09-18T00:05:59;7;7;
66395;PMS5003;72184;51.378;-1.342;2023-09-18T00:08:27;7;7;
66395;PMS5003;72184;51.378;-1.342;2023-09-18T00:10:55;8;7;
66395;PMS5003;72184;51.378;-1.342;2023-09-18T00:13:22;6;5;
66395;PMS5003;72184;51.378;-1.342;2023-09-18T00:15:53;3;3;
66395;PMS5003;72184;51.378;-1.342;2023-09-18T00:18:22;1;1;
66395;PMS5003;72184;51.378;-1.342;2023-09-18T00:20:49;0;0;
66395;PMS5003;72184;51.378;-1.342;2023-09-18T00:23:17;0;0;
66395;PMS5003;72184;51.378;-1.342;2023-09-18T00:25:43;0;0;
66395;PMS5003;72184;51.378;-1.342;2023-09-18T00:28:11;0;0;
66395;PMS5003;72184;51.378;-1.342;2023-09-18T00:30:41;0;0;
66395;PMS5003;72184;51.378;-1.342;2023-09-18T00:33:12;0;0;
66395;PMS5003;72184;51.378;-1.342;2023-09-18T00:35:39;0;0;
66395;PMS5003;72184;51.378;-1.342;2023-09-18T00:38:06;0;0;
66395;PMS5003;72184;51.378;-1.342;2023-09-18T00:40:33;0;0;
66395;PMS5003;72184;51.378;-1.342;2023-09-18T00:43:00;0;0;
66395;PMS5003;72184;51.378;-1.342;2023-09-18T00:45:28;0;0;
66395;PMS5003;72184;51.378;-1.342;2023-09-18T00:47:56;0;0;
66395;PMS5003;72184;51.378;-1.342;2023-09-18T00:50:23;0;0;
66395;PMS5003;72184;51.378;-1.342;2023-09-18T00:52:51;0;0;
66395;PMS5003;72184;51.378;-1.342;2023-09-18T00:55:19;0;0;
66395;PMS5003;72184;51.378;-1.342;2023-09-18T00:57:47;0;0;
66395;PMS5003;72184;51.378;-1.342;2023-09-18T01:00:14;0;0;
66395;PMS5003;72184;51.378;-1.342;2023-09-18T01:02:42;0;0;
66395;PMS5003;72184;51.378;-1.342;2023-09-18T01:05:10;0;0;
66395;PMS5003;72184;51.378;-1.342;2023-09-18T01:07:38;0;0;
66395;PMS5003;72184;51.378;-1.342;2023-09-18T01:10:05;0;0;
66395;PMS5003;72184;51.378;-1.342;2023-09-18T01:12:36;0;0;
66395;PMS5003;72184;51.378;-1.342;2023-09-18T01:15:12;0;0;
66395;PMS5003;72184;51.378;-1.342;2023-09-18T01:17:44;0;0;
66395;PMS5003;72184;51.378;-1.342;2023-09-18T01:20:12;0;0;
66395;PMS5003;72184;51.378;-1.342;2023-09-18T01:22:39;0;0;
66395;PMS5003;72184;51.378;-1.342;2023-09-18T01:25:06;0;0;
66395;PMS5003;72184;51.378;-1.342;2023-09-18T01:27:34;0;0;
66395;PMS5003;72184;51.378;-1.342;2023-09-18T01:30:03;0;0;
66395;PMS5003;72184;51.378;-1.342;2023-09-18T01:32:31;0;0;
66395;PMS5003;72184;51.378;-1.342;2023-09-18T01:35:01;0;0;
66395;PMS5003;72184;51.378;-1.342;2023-09-18T01:37:31;0;0;
66395;PMS5003;72184;51.378;-1.342;2023-09-18T01:39:59;0;0;
66395;PMS5003;72184;51.378;-1.342;2023-09-18T01:42:27;0;0;
66395;PMS5003;72184;51.378;-1.342;2023-09-18T01:44:55;0;0;
66395;PMS5003;72184;51.378;-1.342;2023-09-18T01:47:23;0;0;
66395;PMS5003;72184;51.378;-1.342;2023-09-18T01:49:50;0;0;
66395;PMS5003;72184;51.378;-1.342;2023-09-18T01:52:17;0;0;
66395;PMS5003;72184;51.378;-1.342;2023-09-18T01:54:44;0;0;
66395;PMS5003;72184;51.378;-1.342;2023-09-18T01:57:12;0;0;
66395;PMS5003;72184;51.378;-1.342;2023-09-18T01:59:39;0;0;
66395;PMS5003;72184;51.378;-1.342;2023-09-18T02:02:06;0;0;
66395;PMS5003;72184;51.378;-1.342;2023-09-18T02:04:34;0;0;
66395;PMS5003;72184;51.378;-1.342;2023-09-18T02:07:02;0;0;
66395;PMS5003;72184;51.378;-1.342;2023-09-18T02:09:30;0;0;
66395;PMS5003;72184;51.378;-1.342;2023-09-18T02:11:57;0;0;
66395;PMS5003;72184;51.378;-1.342;2023-09-18T02:14:24;0;0;
66395;PMS5003;72184;51.378;-1.342;2023-09-18T02:16:51;0;0;
66395;PMS5003;72184;51.378;-1.342;2023-09-18T02:19:18;0;0;
66395;PMS5003;72184;51.378;-1.342;2023-09-18T02:21:45;0;0;
66395;PMS5003;72184;51.378;-1.342;2023-09-18T02:24:13;0;0;
66395;PMS5003;72184;51.378;-1.342;2023-09-18T02:26:40;0;0;
66395;PMS5003;72184;51.378;-1.342;2023-09-18T02:29:07;0;0;
66395;PMS5003;72184;51.378;-1.342;2023-09-18T02:31:36;0;0;
66395;PMS5003;72184;51.378;-1.342;2023-09-18T02:34:04;0;0;
66395;PMS5003;72184;51.378;-1.342;2023-09-18T02:36:31;0;0;
66395;PMS5003;72184;51.378;-1.342;2023-09-18T02:38:58;0;0;
66395;PMS5003;72184;51.378;-1.342;2023-09-18T02:41:25;0;0;
66395;PMS5003;72184;51.378;-1.342;2023-09-18T02:43:52;0;0;
66395;PMS5003;72184;51.378;-1.342;2023-09-18T02:46:19;0;0;
66395;PMS5003;72184;51.378;-1.342;2023-09-18T02:48:46;0;0;
66395;PMS5003;72184;51.378;-1.342;2023-09-18T02:51:13;0;0;
66395;PMS5003;72184;51.378;-1.342;2023-09-18T02:53:40;0;0;
66395;PMS5003;72184;51.378;-1.342;2023-09-18T02:56:07;0;0;
66395;PMS5003;72184;51.378;-1.342;2023-09-18T02:58:34;0;0;
66395;PMS5003;72184;51.378;-1.342;2023-09-18T03:01:01;0;0;
66395;PMS5003;72184;51.378;-1.342;2023-09-18T03:03:28;0;0;
66395;PMS5003;72184;51.378;-1.342;2023-09-18T03:06:00;0;0;
66395;PMS5003;72184;51.378;-1.342;2023-09-18T03:08:27;0;0;
66395;PMS5003;72184;51.378;-1.342;2023-09-18T03:10:54;0;0;
66395;PMS5003;72184;51.378;-1.342;2023-09-18T03:13:21;0;0;
66395;PMS5003;72184;51.378;-1.342;2023-09-18T03:15:49;0;0;
66395;PMS5003;72184;51.378;-1.342;2023-09-18T03:18:17;0;0;
66395;PMS5003;72184;51.378;-1.342;2023-09-18T03:20:44;0;0;
66395;PMS5003;72184;51.378;-1.342;2023-09-18T03:23:11;0;0;
66395;PMS5003;72184;51.378;-1.342;2023-09-18T03:25:38;0;0;
66395;PMS5003;72184;51.378;-1.342;2023-09-18T03:28:05;0;0;
66395;PMS5003;72184;51.378;-1.342;2023-09-18T03:30:32;0;0;
66395;PMS5003;72184;51.378;-1.342;2023-09-18T03:32:59;1;0;
66395;PMS5003;72184;51.378;-1.342;2023-09-18T03:35:28;0;0;
66395;PMS5003;72184;51.378;-1.342;2023-09-18T03:37:58;1;0;
66395;PMS5003;72184;51.378;-1.342;2023-09-18T03:40:25;1;1;
66395;PMS5003;72184;51.378;-1.342;2023-09-18T03:42:52;0;0;
66395;PMS5003;72184;51.378;-1.342;2023-09-18T03:45:19;3;1;
66395;PMS5003;72184;51.378;-1.342;2023-09-18T03:47:46;1;1;
66395;PMS5003;72184;51.378;-1.342;2023-09-18T03:50:13;2;2;
66395;PMS5003;72184;51.378;-1.342;2023-09-18T03:52:40;2;2;
66395;PMS5003;72184;51.378;-1.342;2023-09-18T03:55:08;4;3;
66395;PMS5003;72184;51.378;-1.342;2023-09-18T03:57:35;4;4;
66395;PMS5003;72184;51.378;-1.342;2023-09-18T04:00:03;4;3;
66395;PMS5003;72184;51.378;-1.342;2023-09-18T04:02:32;5;4;
66395;PMS5003;72184;51.378;-1.342;2023-09-18T04:04:59;6;6;
66395;PMS5003;72184;51.378;-1.342;2023-09-18T04:09:38;5;5;
66395;PMS5003;72184;51.378;-1.342;2023-09-18T04:12:06;6;6;
66395;PMS5003;72184;51.378;-1.342;2023-09-18T04:14:34;6;6;
66395;PMS5003;72184;51.378;-1.342;2023-09-18T04:17:02;6;6;
66395;PMS5003;72184;51.378;-1.342;2023-09-18T04:19:30;7;7;
66395;PMS5003;72184;51.378;-1.342;2023-09-18T04:21:58;7;6;
66395;PMS5003;72184;51.378;-1.342;2023-09-18T04:24:25;6;6;
66395;PMS5003;72184;51.378;-1.342;2023-09-18T04:26:53;6;6;
66395;PMS5003;72184;51.378;-1.342;2023-09-18T04:29:20;6;5;
66395;PMS5003;72184;51.378;-1.342;2023-09-18T04:31:47;6;6;
66395;PMS5003;72184;51.378;-1.342;2023-09-18T04:34:14;6;6;
66395;PMS5003;72184;51.378;-1.342;2023-09-18T04:36:41;7;6;
66395;PMS5003;72184;51.378;-1.342;2023-09-18T04:39:09;8;6;
66395;PMS5003;72184;51.378;-1.342;2023-09-18T04:41:36;6;5;
66395;PMS5003;72184;51.378;-1.342;2023-09-18T04:44:04;7;7;
66395;PMS5003;72184;51.378;-1.342;2023-09-18T04:46:33;7;6;
66395;PMS5003;72184;51.378;-1.342;2023-09-18T04:49:01;6;5;
66395;PMS5003;72184;51.378;-1.342;2023-09-18T04:51:29;6;6;
66395;PMS5003;72184;51.378;-1.342;2023-09-18T04:53:58;7;6;
66395;PMS5003;72184;51.378;-1.342;2023-09-18T04:56:25;8;7;
66395;PMS5003;72184;51.378;-1.342;2023-09-18T04:58:52;7;7;
66395;PMS5003;72184;51.378;-1.342;2023-09-18T05:01:19;9;8;
66395;PMS5003;72184;51.378;-1.342;2023-09-18T05:03:46;7;7;
66395;PMS5003;72184;51.378;-1.342;2023-09-18T05:06:13;5;4;
66395;PMS5003;72184;51.378;-1.342;2023-09-18T05:08:41;7;7;
66395;PMS5003;72184;51.378;-1.342;2023-09-18T05:11:13;8;7;
66395;PMS5003;72184;51.378;-1.342;2023-09-18T05:13:40;8;8;
66395;PMS5003;72184;51.378;-1.342;2023-09-18T05:16:07;8;7;
66395;PMS5003;72184;51.378;-1.342;2023-09-18T05:18:34;7;7;
66395;PMS5003;72184;51.378;-1.342;2023-09-18T05:21:02;7;7;
66395;PMS5003;72184;51.378;-1.342;2023-09-18T05:23:34;5;5;
66395;PMS5003;72184;51.378;-1.342;2023-09-18T05:26:01;5;5;
66395;PMS5003;72184;51.378;-1.342;2023-09-18T05:28:28;7;6;
66395;PMS5003;72184;51.378;-1.342;2023-09-18T05:30:55;7;7;
66395;PMS5003;72184;51.378;-1.342;2023-09-18T05:33:22;9;6;
66395;PMS5003;72184;51.378;-1.342;2023-09-18T05:35:49;4;4;
66395;PMS5003;72184;51.378;-1.342;2023-09-18T05:38:16;5;4;
66395;PMS5003;72184;51.378;-1.342;2023-09-18T05:40:43;7;7;
66395;PMS5003;72184;51.378;-1.342;2023-09-18T05:43:10;6;5;
66395;PMS5003;72184;51.378;-1.342;2023-09-18T05:45:37;8;6;
66395;PMS5003;72184;51.378;-1.342;2023-09-18T05:48:05;8;7;
66395;PMS5003;72184;51.378;-1.342;2023-09-18T05:50:34;5;5;
66395;PMS5003;72184;51.378;-1.342;2023-09-18T05:53:02;7;7;
66395;PMS5003;72184;51.378;-1.342;2023-09-18T05:55:30;7;7;
66395;PMS5003;72184;51.378;-1.342;2023-09-18T05:57:58;5;5;
66395;PMS5003;72184;51.378;-1.342;2023-09-18T06:00:25;6;5;
66395;PMS5003;72184;51.378;-1.342;2023-09-18T06:02:53;8;8;
66395;PMS5003;72184;51.378;-1.342;2023-09-18T06:05:26;8;6;
66395;PMS5003;72184;51.378;-1.342;2023-09-18T06:07:54;7;6;
66395;PMS5003;72184;51.378;-1.342;2023-09-18T06:10:21;6;6;
66395;PMS5003;72184;51.378;-1.342;2023-09-18T06:12:48;7;7;
66395;PMS5003;72184;51.378;-1.342;2023-09-18T06:15:16;8;7;
66395;PMS5003;72184;51.378;-1.342;2023-09-18T06:17:43;5;5;
66395;PMS5003;72184;51.378;-1.342;2023-09-18T06:20:11;7;6;
66395;PMS5003;72184;51.378;-1.342;2023-09-18T06:22:39;9;8;
66395;PMS5003;72184;51.378;-1.342;2023-09-18T06:25:07;10;9;
66395;PMS5003;72184;51.378;-1.342;2023-09-18T06:27:35;6;6;
66395;PMS5003;72184;51.378;-1.342;2023-09-18T06:30:04;9;9;
66395;PMS5003;72184;51.378;-1.342;2023-09-18T06:32:33;9;9;
66395;PMS5003;72184;51.378;-1.342;2023-09-18T06:35:00;8;7;
66395;PMS5003;72184;51.378;-1.342;2023-09-18T06:37:28;7;6;
66395;PMS5003;72184;51.378;-1.342;2023-09-18T06:39:56;9;8;
66395;PMS5003;72184;51.378;-1.342;2023-09-18T06:42:24;9;8;
66395;PMS5003;72184;51.378;-1.342;2023-09-18T06:44:51;8;8;
66395;PMS5003;72184;51.378;-1.342;2023-09-18T06:47:18;8;7;
66395;PMS5003;72184;51.378;-1.342;2023-09-18T06:49:45;9;8;
66395;PMS5003;72184;51.378;-1.342;2023-09-18T06:52:12;9;8;
66395;PMS5003;72184;51.378;-1.342;2023-09-18T06:54:39;8;8;
66395;PMS5003;72184;51.378;-1.342;2023-09-18T06:57:07;6;6;
66395;PMS5003;72184;51.378;-1.342;2023-09-18T06:59:34;7;6;
66395;PMS5003;72184;51.378;-1.342;2023-09-18T07:02:01;6;6;
66395;PMS5003;72184;51.378;-1.342;2023-09-18T07:04:29;9;7;
66395;PMS5003;72184;51.378;-1.342;2023-09-18T07:06:56;5;5;
66395;PMS5003;72184;51.378;-1.342;2023-09-18T07:09:23;4;4;
66395;PMS5003;72184;51.378;-1.342;2023-09-18T07:11:50;5;5;
66395;PMS5003;72184;51.378;-1.342;2023-09-18T07:14:18;4;4;
66395;PMS5003;72184;51.378;-1.342;2023-09-18T07:16:45;6;5;
66395;PMS5003;72184;51.378;-1.342;2023-09-18T07:19:13;4;4;
66395;PMS5003;72184;51.378;-1.342;2023-09-18T07:21:41;6;6;
66395;PMS5003;72184;51.378;-1.342;2023-09-18T07:24:08;5;4;
66395;PMS5003;72184;51.378;-1.342;2023-09-18T07:26:35;6;4;
66395;PMS5003;72184;51.378;-1.342;2023-09-18T07:29:02;5;4;
66395;PMS5003;72184;51.378;-1.342;2023-09-18T07:31:29;5;5;
66395;PMS5003;72184;51.378;-1.342;2023-09-18T07:33:56;3;3;
66395;PMS5003;72184;51.378;-1.342;2023-09-18T07:36:23;3;3;
66395;PMS5003;72184;51.378;-1.342;2023-09-18T07:38:50;2;2;
66395;PMS5003;72184;51.378;-1.342;2023-09-18T07:41:17;3;3;
66395;PMS5003;72184;51.378;-1.342;2023-09-18T07:43:44;4;3;
66395;PMS5003;72184;51.378;-1.342;2023-09-18T07:46:11;4;4;
66395;PMS5003;72184;51.378;-1.342;2023-09-18T07:48:39;3;3;
66395;PMS5003;72184;51.378;-1.342;2023-09-18T07:51:06;2;1;
66395;PMS5003;72184;51.378;-1.342;2023-09-18T07:53:37;3;2;
66395;PMS5003;72184;51.378;-1.342;2023-09-18T07:56:04;2;0;
66395;PMS5003;72184;51.378;-1.342;2023-09-18T07:58:31;2;2;
66395;PMS5003;72184;51.378;-1.342;2023-09-18T08:00:58;3;3;
66395;PMS5003;72184;51.378;-1.342;2023-09-18T08:03:26;4;4;
66395;PMS5003;72184;51.378;-1.342;2023-09-18T08:05:53;2;2;
66395;PMS5003;72184;51.378;-1.342;2023-09-18T08:08:21;2;2;
66395;PMS5003;72184;51.378;-1.342;2023-09-18T08:10:49;2;2;
66395;PMS5003;72184;51.378;-1.342;2023-09-18T08:13:17;3;3;
66395;PMS5003;72184;51.378;-1.342;2023-09-18T08:15:45;2;2;
66395;PMS5003;72184;51.378;-1.342;2023-09-18T08:18:12;3;3;
66395;PMS5003;72184;51.378;-1.342;2023-09-18T08:20:40;4;3;
66395;PMS5003;72184;51.378;-1.342;2023-09-18T08:23:08;2;1;
66395;PMS5003;72184;51.378;-1.342;2023-09-18T08:25:36;1;1;
66395;PMS5003;72184;51.378;-1.342;2023-09-18T08:28:04;2;1;
66395;PMS5003;72184;51.378;-1.342;2023-09-18T08:30:31;1;1;
66395;PMS5003;72184;51.378;-1.342;2023-09-18T08:32:59;1;1;
66395;PMS5003;72184;51.378;-1.342;2023-09-18T08:35:26;2;1;
66395;PMS5003;72184;51.378;-1.342;2023-09-18T08:37:53;2;1;
66395;PMS5003;72184;51.378;-1.342;2023-09-18T08:40:20;1;0;
66395;PMS5003;72184;51.378;-1.342;2023-09-18T08:42:50;2;2;
66395;PMS5003;72184;51.378;-1.342;2023-09-18T08:45:22;2;1;
66395;PMS5003;72184;51.378;-1.342;2023-09-18T08:47:52;1;1;
66395;PMS5003;72184;51.378;-1.342;2023-09-18T08:50:21;1;1;
66395;PMS5003;72184;51.378;-1.342;2023-09-18T08:52:49;0;0;
66395;PMS5003;72184;51.378;-1.342;2023-09-18T08:55:18;2;1;
66395;PMS5003;72184;51.378;-1.342;2023-09-18T08:57:45;0;0;
66395;PMS5003;72184;51.378;-1.342;2023-09-18T09:00:14;1;1;
66395;PMS5003;72184;51.378;-1.342;2023-09-18T09:02:41;0;0;
66395;PMS5003;72184;51.378;-1.342;2023-09-18T09:05:09;0;0;
66395;PMS5003;72184;51.378;-1.342;2023-09-18T09:07:37;2;1;
66395;PMS5003;72184;51.378;-1.342;2023-09-18T09:10:05;2;2;
66395;PMS5003;72184;51.378;-1.342;2023-09-18T09:12:50;1;1;
66395;PMS5003;72184;51.378;-1.342;2023-09-18T09:15:19;0;0;
66395;PMS5003;72184;51.378;-1.342;2023-09-18T09:17:47;1;1;
66395;PMS5003;72184;51.378;-1.342;2023-09-18T09:20:16;0;0;
66395;PMS5003;72184;51.378;-1.342;2023-09-18T09:22:43;2;1;
66395;PMS5003;72184;51.378;-1.342;2023-09-18T09:25:27;2;2;
66395;PMS5003;72184;51.378;-1.342;2023-09-18T09:27:56;1;1;
66395;PMS5003;72184;51.378;-1.342;2023-09-18T09:30:25;0;0;
66395;PMS5003;72184;51.378;-1.342;2023-09-18T09:32:54;0;0;
66395;PMS5003;72184;51.378;-1.342;2023-09-18T09:35:22;0;0;
66395;PMS5003;72184;51.378;-1.342;2023-09-18T09:37:51;0;0;
66395;PMS5003;72184;51.378;-1.342;2023-09-18T09:40:19;0;0;
66395;PMS5003;72184;51.378;-1.342;2023-09-18T09:42:47;0;0;
66395;PMS5003;72184;51.378;-1.342;2023-09-18T09:45:17;0;0;
66395;PMS5003;72184;51.378;-1.342;2023-09-18T09:47:45;0;0;
66395;PMS5003;72184;51.378;-1.342;2023-09-18T09:50:14;0;0;
66395;PMS5003;72184;51.378;-1.342;2023-09-18T09:52:43;0;0;
66395;PMS5003;72184;51.378;-1.342;2023-09-18T09:55:21;0;0;
66395;PMS5003;72184;51.378;-1.342;2023-09-18T09:57:50;0;0;
66395;PMS5003;72184;51.378;-1.342;2023-09-18T10:00:20;0;0;
66395;PMS5003;72184;51.378;-1.342;2023-09-18T10:02:47;0;0;
66395;PMS5003;72184;51.378;-1.342;2023-09-18T10:05:15;0;0;
66395;PMS5003;72184;51.378;-1.342;2023-09-18T10:07:45;0;0;
66395;PMS5003;72184;51.378;-1.342;2023-09-18T10:10:13;0;0;
66395;PMS5003;72184;51.378;-1.342;2023-09-18T10:12:41;0;0;
66395;PMS5003;72184;51.378;-1.342;2023-09-18T10:15:13;0;0;
66395;PMS5003;72184;51.378;-1.342;2023-09-18T10:17:42;0;0;
66395;PMS5003;72184;51.378;-1.342;2023-09-18T10:20:11;0;0;
66395;PMS5003;72184;51.378;-1.342;2023-09-18T10:22:42;0;0;
66395;PMS5003;72184;51.378;-1.342;2023-09-18T10:25:13;0;0;
66395;PMS5003;72184;51.378;-1.342;2023-09-18T10:27:43;0;0;
66395;PMS5003;72184;51.378;-1.342;2023-09-18T10:30:13;0;0;
66395;PMS5003;72184;51.378;-1.342;2023-09-18T10:32:41;0;0;
66395;PMS5003;72184;51.378;-1.342;2023-09-18T10:35:11;0;0;
66395;PMS5003;72184;51.378;-1.342;2023-09-18T10:37:39;0;0;
66395;PMS5003;72184;51.378;-1.342;2023-09-18T10:40:08;0;0;
66395;PMS5003;72184;51.378;-1.342;2023-09-18T10:42:37;0;0;
66395;PMS5003;72184;51.378;-1.342;2023-09-18T10:45:07;0;0;
66395;PMS5003;72184;51.378;-1.342;2023-09-18T10:47:37;0;0;
66395;PMS5003;72184;51.378;-1.342;2023-09-18T10:50:06;0;0;
66395;PMS5003;72184;51.378;-1.342;2023-09-18T10:52:34;0;0;
66395;PMS5003;72184;51.378;-1.342;2023-09-18T10:55:03;0;0;
66395;PMS5003;72184;51.378;-1.342;2023-09-18T10:57:33;0;0;
66395;PMS5003;72184;51.378;-1.342;2023-09-18T11:00:01;0;0;
66395;PMS5003;72184;51.378;-1.342;2023-09-18T11:02:29;0;0;
66395;PMS5003;72184;51.378;-1.342;2023-09-18T11:04:56;0;0;
66395;PMS5003;72184;51.378;-1.342;2023-09-18T11:07:23;0;0;
66395;PMS5003;72184;51.378;-1.342;2023-09-18T11:09:50;0;0;
66395;PMS5003;72184;51.378;-1.342;2023-09-18T11:12:17;0;0;
66395;PMS5003;72184;51.378;-1.342;2023-09-18T11:14:45;0;0;
66395;PMS5003;72184;51.378;-1.342;2023-09-18T11:17:32;0;0;
66395;PMS5003;72184;51.378;-1.342;2023-09-18T11:20:03;0;0;
66395;PMS5003;72184;51.378;-1.342;2023-09-18T11:22:31;0;0;
66395;PMS5003;72184;51.378;-1.342;2023-09-18T11:25:28;0;0;
66395;PMS5003;72184;51.378;-1.342;2023-09-18T11:27:56;0;0;
66395;PMS5003;72184;51.378;-1.342;2023-09-18T11:30:24;0;0;
66395;PMS5003;72184;51.378;-1.342;2023-09-18T11:32:52;0;0;
66395;PMS5003;72184;51.378;-1.342;2023-09-18T11:35:21;0;0;
66395;PMS5003;72184;51.378;-1.342;2023-09-18T11:38:02;0;0;
66395;PMS5003;72184;51.378;-1.342;2023-09-18T11:40:32;0;0;
66395;PMS5003;72184;51.378;-1.342;2023-09-18T11:43:32;0;0;
66395;PMS5003;72184;51.378;-1.342;2023-09-18T11:45:59;0;0;
66395;PMS5003;72184;51.378;-1.342;2023-09-18T11:48:27;0;0;
66395;PMS5003;72184;51.378;-1.342;2023-09-18T11:50:56;0;0;
66395;PMS5003;72184;51.378;-1.342;2023-09-18T11:53:26;0;0;
66395;PMS5003;72184;51.378;-1.342;2023-09-18T11:55:54;0;0;
66395;PMS5003;72184;51.378;-1.342;2023-09-18T11:58:22;0;0;
66395;PMS5003;72184;51.378;-1.342;2023-09-18T12:00:50;0;0;
66395;PMS5003;72184;51.378;-1.342;2023-09-18T12:03:20;0;0;
66395;PMS5003;72184;51.378;-1.342;2023-09-18T12:05:48;0;0;
66395;PMS5003;72184;51.378;-1.342;2023-09-18T12:08:18;0;0;
66395;PMS5003;72184;51.378;-1.342;2023-09-18T12:10:48;0;0;
66395;PMS5003;72184;51.378;-1.342;2023-09-18T12:13:16;0;0;
66395;PMS5003;72184;51.378;-1.342;2023-09-18T12:15:44;0;0;
66395;PMS5003;72184;51.378;-1.342;2023-09-18T12:18:14;0;0;
66395;PMS5003;72184;51.378;-1.342;2023-09-18T12:20:46;0;0;
66395;PMS5003;72184;51.378;-1.342;2023-09-18T12:23:14;0;0;
66395;PMS5003;72184;51.378;-1.342;2023-09-18T12:25:44;0;0;
66395;PMS5003;72184;51.378;-1.342;2023-09-18T12:28:14;0;0;
66395;PMS5003;72184;51.378;-1.342;2023-09-18T12:30:42;0;0;
66395;PMS5003;72184;51.378;-1.342;2023-09-18T12:33:10;0;0;
66395;PMS5003;72184;51.378;-1.342;2023-09-18T12:35:38;0;0;
66395;PMS5003;72184;51.378;-1.342;2023-09-18T12:38:13;0;0;
66395;PMS5003;72184;51.378;-1.342;2023-09-18T12:40:42;1;0;
66395;PMS5003;72184;51.378;-1.342;2023-09-18T12:43:10;0;0;
66395;PMS5003;72184;51.378;-1.342;2023-09-18T12:45:39;0;0;
66395;PMS5003;72184;51.378;-1.342;2023-09-18T12:48:07;0;0;
66395;PMS5003;72184;51.378;-1.342;2023-09-18T12:50:35;0;0;
66395;PMS5003;72184;51.378;-1.342;2023-09-18T12:53:07;0;0;
66395;PMS5003;72184;51.378;-1.342;2023-09-18T12:55:35;0;0;
66395;PMS5003;72184;51.378;-1.342;2023-09-18T12:58:03;0;0;
66395;PMS5003;72184;51.378;-1.342;2023-09-18T13:00:31;0;0;
66395;PMS5003;72184;51.378;-1.342;2023-09-18T13:02:59;0;0;
66395;PMS5003;72184;51.378;-1.342;2023-09-18T13:05:27;0;0;
66395;PMS5003;72184;51.378;-1.342;2023-09-18T13:07:55;0;0;
66395;PMS5003;72184;51.378;-1.342;2023-09-18T13:10:23;0;0;
66395;PMS5003;72184;51.378;-1.342;2023-09-18T13:12:51;0;0;
66395;PMS5003;72184;51.378;-1.342;2023-09-18T13:15:24;0;0;
66395;PMS5003;72184;51.378;-1.342;2023-09-18T13:17:52;0;0;
66395;PMS5003;72184;51.378;-1.342;2023-09-18T13:20:21;0;0;
66395;PMS5003;72184;51.378;-1.342;2023-09-18T13:22:49;1;0;
66395;PMS5003;72184;51.378;-1.342;2023-09-18T13:25:19;1;0;
66395;PMS5003;72184;51.378;-1.342;2023-09-18T13:27:47;0;0;
66395;PMS5003;72184;51.378;-1.342;2023-09-18T13:30:14;0;0;
66395;PMS5003;72184;51.378;-1.342;2023-09-18T13:32:42;0;0;
66395;PMS5003;72184;51.378;-1.342;2023-09-18T13:35:10;0;0;
66395;PMS5003;72184;51.378;-1.342;2023-09-18T13:37:38;0;0;
66395;PMS5003;72184;51.378;-1.342;2023-09-18T13:40:06;0;0;
66395;PMS5003;72184;51.378;-1.342;2023-09-18T13:42:34;0;0;
66395;PMS5003;72184;51.378;-1.342;2023-09-18T13:45:02;0;0;
66395;PMS5003;72184;51.378;-1.342;2023-09-18T13:47:31;0;0;
66395;PMS5003;72184;51.378;-1.342;2023-09-18T13:50:00;0;0;
66395;PMS5003;72184;51.378;-1.342;2023-09-18T13:52:28;0;0;
66395;PMS5003;72184;51.378;-1.342;2023-09-18T13:54:56;0;0;
66395;PMS5003;72184;51.378;-1.342;2023-09-18T13:57:30;0;0;
66395;PMS5003;72184;51.378;-1.342;2023-09-18T13:59:59;0;0;
66395;PMS5003;72184;51.378;-1.342;2023-09-18T14:02:27;0;0;
66395;PMS5003;72184;51.378;-1.342;2023-09-18T14:04:55;0;0;
66395;PMS5003;72184;51.378;-1.342;2023-09-18T14:07:23;0;0;
66395;PMS5003;72184;51.378;-1.342;2023-09-18T14:09:50;0;0;
66395;PMS5003;72184;51.378;-1.342;2023-09-18T14:12:18;0;0;
66395;PMS5003;72184;51.378;-1.342;2023-09-18T14:14:46;0;0;
66395;PMS5003;72184;51.378;-1.342;2023-09-18T14:17:14;0;0;
66395;PMS5003;72184;51.378;-1.342;2023-09-18T14:19:41;0;0;
66395;PMS5003;72184;51.378;-1.342;2023-09-18T14:22:10;0;0;
66395;PMS5003;72184;51.378;-1.342;2023-09-18T14:24:38;0;0;
66395;PMS5003;72184;51.378;-1.342;2023-09-18T14:27:06;0;0;
66395;PMS5003;72184;51.378;-1.342;2023-09-18T14:29:34;0;0;
66395;PMS5003;72184;51.378;-1.342;2023-09-18T14:32:01;0;0;
66395;PMS5003;72184;51.378;-1.342;2023-09-18T14:34:29;0;0;
66395;PMS5003;72184;51.378;-1.342;2023-09-18T14:36:57;0;0;
66395;PMS5003;72184;51.378;-1.342;2023-09-18T14:39:25;0;0;
66395;PMS5003;72184;51.378;-1.342;2023-09-18T14:41:52;0;0;
66395;PMS5003;72184;51.378;-1.342;2023-09-18T14:44:20;0;0;
66395;PMS5003;72184;51.378;-1.342;2023-09-18T14:46:48;0;0;
66395;PMS5003;72184;51.378;-1.342;2023-09-18T14:49:16;0;0;
66395;PMS5003;72184;51.378;-1.342;2023-09-18T14:51:43;0;0;
66395;PMS5003;72184;51.378;-1.342;2023-09-18T14:54:11;0;0;
66395;PMS5003;72184;51.378;-1.342;2023-09-18T14:56:39;0;0;
66395;PMS5003;72184;51.378;-1.342;2023-09-18T14:59:07;0;0;
66395;PMS5003;72184;51.378;-1.342;2023-09-18T15:01:35;0;0;
66395;PMS5003;72184;51.378;-1.342;2023-09-18T15:04:02;0;0;
66395;PMS5003;72184;51.378;-1.342;2023-09-18T15:06:30;0;0;
66395;PMS5003;72184;51.378;-1.342;2023-09-18T15:09:02;0;0;
66395;PMS5003;72184;51.378;-1.342;2023-09-18T15:11:30;0;0;
66395;PMS5003;72184;51.378;-1.342;2023-09-18T15:13:58;0;0;
66395;PMS5003;72184;51.378;-1.342;2023-09-18T15:16:25;0;0;
66395;PMS5003;72184;51.378;-1.342;2023-09-18T15:18:53;0;0;
66395;PMS5003;72184;51.378;-1.342;2023-09-18T15:21:21;0;0;
66395;PMS5003;72184;51.378;-1.342;2023-09-18T15:23:49;0;0;
66395;PMS5003;72184;51.378;-1.342;2023-09-18T15:26:16;0;0;
66395;PMS5003;72184;51.378;-1.342;2023-09-18T15:28:44;0;0;
66395;PMS5003;72184;51.378;-1.342;2023-09-18T15:31:12;0;0;
66395;PMS5003;72184;51.378;-1.342;2023-09-18T15:33:40;0;0;
66395;PMS5003;72184;51.378;-1.342;2023-09-18T15:36:08;0;0;
66395;PMS5003;72184;51.378;-1.342;2023-09-18T15:38:36;0;0;
66395;PMS5003;72184;51.378;-1.342;2023-09-18T15:41:03;0;0;
66395;PMS5003;72184;51.378;-1.342;2023-09-18T15:43:31;0;0;
66395;PMS5003;72184;51.378;-1.342;2023-09-18T15:45:59;0;0;
66395;PMS5003;72184;51.378;-1.342;2023-09-18T15:48:27;0;0;
66395;PMS5003;72184;51.378;-1.342;2023-09-18T15:50:54;0;0;
66395;PMS5003;72184;51.378;-1.342;2023-09-18T15:53:22;0;0;
66395;PMS5003;72184;51.378;-1.342;2023-09-18T15:55:50;0;0;
66395;PMS5003;72184;51.378;-1.342;2023-09-18T15:58:18;0;0;
66395;PMS5003;72184;51.378;-1.342;2023-09-18T16:00:46;0;0;
66395;PMS5003;72184;51.378;-1.342;2023-09-18T16:03:14;0;0;
66395;PMS5003;72184;51.378;-1.342;2023-09-18T16:05:41;0;0;
66395;PMS5003;72184;51.378;-1.342;2023-09-18T16:08:09;0;0;
66395;PMS5003;72184;51.378;-1.342;2023-09-18T16:10:37;0;0;
66395;PMS5003;72184;51.378;-1.342;2023-09-18T16:13:05;0;0;
66395;PMS5003;72184;51.378;-1.342;2023-09-18T16:15:33;0;0;
66395;PMS5003;72184;51.378;-1.342;2023-09-18T16:18:01;0;0;
66395;PMS5003;72184;51.378;-1.342;2023-09-18T16:20:28;0;0;
66395;PMS5003;72184;51.378;-1.342;2023-09-18T16:22:56;0;0;
66395;PMS5003;72184;51.378;-1.342;2023-09-18T16:25:24;0;0;
66395;PMS5003;72184;51.378;-1.342;2023-09-18T16:27:52;0;0;
66395;PMS5003;72184;51.378;-1.342;2023-09-18T16:30:20;0;0;
66395;PMS5003;72184;51.378;-1.342;2023-09-18T16:32:47;0;0;
66395;PMS5003;72184;51.378;-1.342;2023-09-18T16:35:15;0;0;
66395;PMS5003;72184;51.378;-1.342;2023-09-18T16:37:43;0;0;
66395;PMS5003;72184;51.378;-1.342;2023-09-18T16:40:10;0;0;
66395;PMS5003;72184;51.378;-1.342;2023-09-18T16:42:38;0;0;